Airfield :
LOGIN :

Register | Disclaimer

   EN    FR    IT 

 










Legend :    VFR   Marginal VFR   IFR   Intensive IFR   Very Intensive IFR
Visi :
Ceiling :
>= 8 km
>= 3000ft
5 to 8 km
1000 to 3000 ft
1500m to 5 km
500 to 1000 ft
800 to 1500m
200 to 500 ft
< 800m
< 200 ft
Symbols :   Thunderstorms  Fog  Heavy snow  Heavy precipitations  Wind > 20 kt
SIGMETs :     Misc.  Thunderstorms  Icing  Turbulence  Mountain Waves  Volcanic Ashes






- Airport Elevation : 1106 ft


LFSO - Nancy / Ochey

CURRENT METAR :
  • 150700Z AUTO VRB02KT 9999 -RA ///TCU 12/11 Q1008 TEMPO 4000 -RA OVC008

EXPIRED METARs :
  • 150630Z AUTO 26006KT 9999 -RADZ SCT049/// BKN058/// OVC090/// ///TCU 12/11 Q1008 TEMPO 4000 -RA OVC008
  • 150600Z AUTO 26005KT 240V300 9999 RA BKN049/// BKN070/// OVC098/// ///TCU 12/11 Q1007 TEMPO 4000 -RA OVC013
  • 150530Z AUTO 26006KT 9999 -RA FEW036 SCT042 BKN050 13/11 Q1007
  • 150500Z AUTO 25007KT 9999 SCT023/// BKN058/// BKN098/// ///TCU 13/10 Q1008
  • 150430Z AUTO 27006KT 9999 FEW026/// SCT062/// OVC100/// ///TCU 14/11 Q1008

TAF AMD TAF LFSO
Valid from the 15 at 05:00 until the 16 at 03:00 UTC


150520Z 1505/1603 24010KT 9999 BKN025
TEMPO 1507/1513 4000 -RA OVC013
PROB40
TEMPO 1508/1512 23010G20KT RA OVC008
PROB40
TEMPO 1513/1518 28010G20KT 4000 -SHRA BKN013 SCT020TCU



MET'MAP, your aeronautical weather chart ! - Copyright ORBIFLY December 2007 - Disclaimer

ORBIFLY MET'MAP TEAM :

Programming & Development : Alexandra Zaïnal
Concept & Development : Baudouin d'Aumeries
Co-Development & Prog : Marc-Olivier Méhu
Technical & hardware support : Manuel Goepfert

Contact : metmap@orbifly.com




SOURCES & CREDITS :

   NOAA